sensor_id;sensor_type;location;lat;lon;timestamp;P1;durP1;ratioP1;P2;durP2;ratioP2
54937;SDS011;52756;52.826;6.214;2023-05-07T00:01:16;18.92;;;16.63;;
54937;SDS011;52756;52.826;6.214;2023-05-07T00:03:42;18.55;;;15.30;;
54937;SDS011;52756;52.826;6.214;2023-05-07T00:06:08;18.05;;;16.23;;
54937;SDS011;52756;52.826;6.214;2023-05-07T00:08:35;16.00;;;14.32;;
54937;SDS011;52756;52.826;6.214;2023-05-07T00:11:00;18.30;;;14.93;;
54937;SDS011;52756;52.826;6.214;2023-05-07T00:13:26;14.68;;;13.07;;
54937;SDS011;52756;52.826;6.214;2023-05-07T00:15:52;15.95;;;13.00;;
54937;SDS011;52756;52.826;6.214;2023-05-07T00:18:18;17.15;;;15.45;;
54937;SDS011;52756;52.826;6.214;2023-05-07T00:20:47;15.35;;;13.43;;
54937;SDS011;52756;52.826;6.214;2023-05-07T00:23:13;18.70;;;16.73;;
54937;SDS011;52756;52.826;6.214;2023-05-07T00:25:38;18.70;;;16.00;;
54937;SDS011;52756;52.826;6.214;2023-05-07T00:28:04;16.85;;;14.30;;
54937;SDS011;52756;52.826;6.214;2023-05-07T00:30:30;18.77;;;15.73;;
54937;SDS011;52756;52.826;6.214;2023-05-07T00:32:55;20.13;;;16.63;;
54937;SDS011;52756;52.826;6.214;2023-05-07T00:35:21;21.15;;;16.67;;
54937;SDS011;52756;52.826;6.214;2023-05-07T00:37:47;19.08;;;15.95;;
54937;SDS011;52756;52.826;6.214;2023-05-07T00:40:14;20.42;;;16.77;;
54937;SDS011;52756;52.826;6.214;2023-05-07T00:42:39;20.83;;;16.85;;
54937;SDS011;52756;52.826;6.214;2023-05-07T00:45:05;24.42;;;18.30;;
54937;SDS011;52756;52.826;6.214;2023-05-07T00:47:32;20.58;;;17.90;;
54937;SDS011;52756;52.826;6.214;2023-05-07T00:49:58;21.10;;;17.75;;
54937;SDS011;52756;52.826;6.214;2023-05-07T00:52:25;24.13;;;18.17;;
54937;SDS011;52756;52.826;6.214;2023-05-07T00:54:51;22.80;;;19.10;;
54937;SDS011;52756;52.826;6.214;2023-05-07T00:57:17;19.35;;;17.27;;
54937;SDS011;52756;52.826;6.214;2023-05-07T00:59:44;22.55;;;18.20;;
54937;SDS011;52756;52.826;6.214;2023-05-07T01:02:09;22.77;;;18.05;;
54937;SDS011;52756;52.826;6.214;2023-05-07T01:04:36;20.45;;;18.25;;
54937;SDS011;52756;52.826;6.214;2023-05-07T01:07:01;22.55;;;18.33;;
54937;SDS011;52756;52.826;6.214;2023-05-07T01:09:28;21.65;;;16.52;;
54937;SDS011;52756;52.826;6.214;2023-05-07T01:11:54;21.17;;;17.23;;
54937;SDS011;52756;52.826;6.214;2023-05-07T01:14:22;21.05;;;17.15;;
54937;SDS011;52756;52.826;6.214;2023-05-07T01:16:49;19.45;;;16.95;;
54937;SDS011;52756;52.826;6.214;2023-05-07T01:19:17;19.35;;;16.05;;
54937;SDS011;52756;52.826;6.214;2023-05-07T01:21:47;19.60;;;16.63;;
54937;SDS011;52756;52.826;6.214;2023-05-07T01:24:14;18.73;;;15.90;;
54937;SDS011;52756;52.826;6.214;2023-05-07T01:26:40;18.45;;;15.65;;
54937;SDS011;52756;52.826;6.214;2023-05-07T01:29:07;17.85;;;15.80;;
54937;SDS011;52756;52.826;6.214;2023-05-07T01:31:33;20.77;;;16.75;;
54937;SDS011;52756;52.826;6.214;2023-05-07T01:34:00;15.93;;;13.93;;
54937;SDS011;52756;52.826;6.214;2023-05-07T01:36:27;18.23;;;15.13;;
54937;SDS011;52756;52.826;6.214;2023-05-07T01:38:55;17.08;;;13.80;;
54937;SDS011;52756;52.826;6.214;2023-05-07T01:41:22;16.23;;;14.32;;
54937;SDS011;52756;52.826;6.214;2023-05-07T01:43:48;16.05;;;13.25;;
54937;SDS011;52756;52.826;6.214;2023-05-07T01:46:17;16.25;;;13.02;;
54937;SDS011;52756;52.826;6.214;2023-05-07T01:48:44;15.05;;;13.52;;
54937;SDS011;52756;52.826;6.214;2023-05-07T01:51:11;15.02;;;13.52;;
54937;SDS011;52756;52.826;6.214;2023-05-07T01:53:37;17.95;;;14.43;;
54937;SDS011;52756;52.826;6.214;2023-05-07T01:56:04;17.38;;;14.32;;
54937;SDS011;52756;52.826;6.214;2023-05-07T01:58:30;16.95;;;14.30;;
54937;SDS011;52756;52.826;6.214;2023-05-07T02:00:56;21.30;;;15.68;;
54937;SDS011;52756;52.826;6.214;2023-05-07T02:03:21;20.00;;;15.73;;
54937;SDS011;52756;52.826;6.214;2023-05-07T02:05:47;18.05;;;15.18;;
54937;SDS011;52756;52.826;6.214;2023-05-07T02:08:13;18.63;;;15.82;;
54937;SDS011;52756;52.826;6.214;2023-05-07T02:10:38;16.75;;;14.77;;
54937;SDS011;52756;52.826;6.214;2023-05-07T02:13:04;18.70;;;15.43;;
54937;SDS011;52756;52.826;6.214;2023-05-07T02:15:30;18.00;;;15.30;;
54937;SDS011;52756;52.826;6.214;2023-05-07T02:18:05;16.38;;;14.60;;
54937;SDS011;52756;52.826;6.214;2023-05-07T02:20:34;19.35;;;15.80;;
54937;SDS011;52756;52.826;6.214;2023-05-07T02:23:00;21.45;;;17.30;;
54937;SDS011;52756;52.826;6.214;2023-05-07T02:25:25;21.90;;;18.05;;
54937;SDS011;52756;52.826;6.214;2023-05-07T02:27:51;21.55;;;18.65;;
54937;SDS011;52756;52.826;6.214;2023-05-07T02:30:17;22.13;;;19.63;;
54937;SDS011;52756;52.826;6.214;2023-05-07T02:32:43;20.50;;;18.15;;
54937;SDS011;52756;52.826;6.214;2023-05-07T02:35:08;22.02;;;19.20;;
54937;SDS011;52756;52.826;6.214;2023-05-07T02:37:34;23.58;;;19.92;;
54937;SDS011;52756;52.826;6.214;2023-05-07T02:40:00;22.42;;;19.98;;
54937;SDS011;52756;52.826;6.214;2023-05-07T02:42:26;24.73;;;19.13;;
54937;SDS011;52756;52.826;6.214;2023-05-07T02:44:51;25.00;;;21.15;;
54937;SDS011;52756;52.826;6.214;2023-05-07T02:47:17;25.92;;;20.20;;
54937;SDS011;52756;52.826;6.214;2023-05-07T02:49:43;22.63;;;19.70;;
54937;SDS011;52756;52.826;6.214;2023-05-07T02:52:08;24.67;;;20.83;;
54937;SDS011;52756;52.826;6.214;2023-05-07T02:54:34;23.88;;;20.55;;
54937;SDS011;52756;52.826;6.214;2023-05-07T02:57:00;23.50;;;20.48;;
54937;SDS011;52756;52.826;6.214;2023-05-07T02:59:27;26.67;;;20.73;;
54937;SDS011;52756;52.826;6.214;2023-05-07T03:01:52;23.60;;;20.52;;
54937;SDS011;52756;52.826;6.214;2023-05-07T03:04:18;25.60;;;20.58;;
54937;SDS011;52756;52.826;6.214;2023-05-07T03:06:44;26.20;;;21.17;;
54937;SDS011;52756;52.826;6.214;2023-05-07T03:09:09;28.80;;;20.85;;
54937;SDS011;52756;52.826;6.214;2023-05-07T03:11:35;23.30;;;20.50;;
54937;SDS011;52756;52.826;6.214;2023-05-07T03:14:01;27.60;;;21.45;;
54937;SDS011;52756;52.826;6.214;2023-05-07T03:16:27;25.20;;;21.65;;
54937;SDS011;52756;52.826;6.214;2023-05-07T03:18:53;22.92;;;20.35;;
54937;SDS011;52756;52.826;6.214;2023-05-07T03:21:19;26.65;;;21.67;;
54937;SDS011;52756;52.826;6.214;2023-05-07T03:23:44;25.38;;;22.60;;
54937;SDS011;52756;52.826;6.214;2023-05-07T03:26:10;26.70;;;22.08;;
54937;SDS011;52756;52.826;6.214;2023-05-07T03:28:36;25.90;;;22.60;;
54937;SDS011;52756;52.826;6.214;2023-05-07T03:31:02;24.38;;;21.77;;
54937;SDS011;52756;52.826;6.214;2023-05-07T03:33:28;26.70;;;22.60;;
54937;SDS011;52756;52.826;6.214;2023-05-07T03:35:53;27.33;;;23.17;;
54937;SDS011;52756;52.826;6.214;2023-05-07T03:38:19;27.17;;;23.50;;
54937;SDS011;52756;52.826;6.214;2023-05-07T03:40:45;25.63;;;22.55;;
54937;SDS011;52756;52.826;6.214;2023-05-07T03:43:11;31.08;;;24.65;;
54937;SDS011;52756;52.826;6.214;2023-05-07T03:45:36;33.58;;;24.13;;
54937;SDS011;52756;52.826;6.214;2023-05-07T03:48:02;26.83;;;22.85;;
54937;SDS011;52756;52.826;6.214;2023-05-07T03:50:28;28.90;;;23.30;;
54937;SDS011;52756;52.826;6.214;2023-05-07T03:52:54;30.02;;;24.35;;
54937;SDS011;52756;52.826;6.214;2023-05-07T03:55:19;31.10;;;24.60;;
54937;SDS011;52756;52.826;6.214;2023-05-07T03:57:45;32.03;;;26.50;;
54937;SDS011;52756;52.826;6.214;2023-05-07T04:00:11;32.10;;;25.85;;
54937;SDS011;52756;52.826;6.214;2023-05-07T04:02:38;34.80;;;26.52;;
54937;SDS011;52756;52.826;6.214;2023-05-07T04:05:03;31.48;;;25.58;;
54937;SDS011;52756;52.826;6.214;2023-05-07T04:07:30;31.17;;;25.83;;
54937;SDS011;52756;52.826;6.214;2023-05-07T04:09:55;35.28;;;27.55;;
54937;SDS011;52756;52.826;6.214;2023-05-07T04:12:21;36.90;;;27.00;;
54937;SDS011;52756;52.826;6.214;2023-05-07T04:14:47;30.42;;;26.33;;
54937;SDS011;52756;52.826;6.214;2023-05-07T04:17:12;36.90;;;28.35;;
54937;SDS011;52756;52.826;6.214;2023-05-07T04:19:38;32.35;;;27.02;;
54937;SDS011;52756;52.826;6.214;2023-05-07T04:22:04;37.72;;;28.70;;
54937;SDS011;52756;52.826;6.214;2023-05-07T04:24:32;34.88;;;28.02;;
54937;SDS011;52756;52.826;6.214;2023-05-07T04:26:58;33.75;;;27.83;;
54937;SDS011;52756;52.826;6.214;2023-05-07T04:29:24;36.13;;;28.98;;
54937;SDS011;52756;52.826;6.214;2023-05-07T04:31:50;40.72;;;30.25;;
54937;SDS011;52756;52.826;6.214;2023-05-07T04:34:16;38.90;;;29.38;;
54937;SDS011;52756;52.826;6.214;2023-05-07T04:36:41;33.83;;;28.48;;
54937;SDS011;52756;52.826;6.214;2023-05-07T04:39:07;39.05;;;28.90;;
54937;SDS011;52756;52.826;6.214;2023-05-07T04:41:34;35.22;;;28.27;;
54937;SDS011;52756;52.826;6.214;2023-05-07T04:44:01;37.60;;;29.60;;
54937;SDS011;52756;52.826;6.214;2023-05-07T04:46:30;35.38;;;28.95;;
54937;SDS011;52756;52.826;6.214;2023-05-07T04:48:55;38.22;;;29.63;;
54937;SDS011;52756;52.826;6.214;2023-05-07T04:51:21;39.08;;;30.88;;
54937;SDS011;52756;52.826;6.214;2023-05-07T04:53:47;40.33;;;32.60;;
54937;SDS011;52756;52.826;6.214;2023-05-07T04:56:13;39.85;;;31.35;;
54937;SDS011;52756;52.826;6.214;2023-05-07T04:58:39;37.80;;;31.08;;
54937;SDS011;52756;52.826;6.214;2023-05-07T05:01:05;40.83;;;31.00;;
54937;SDS011;52756;52.826;6.214;2023-05-07T05:03:31;42.03;;;31.00;;
54937;SDS011;52756;52.826;6.214;2023-05-07T05:05:56;43.42;;;32.25;;
54937;SDS011;52756;52.826;6.214;2023-05-07T05:08:24;37.47;;;30.80;;
54937;SDS011;52756;52.826;6.214;2023-05-07T05:10:50;37.17;;;29.73;;
54937;SDS011;52756;52.826;6.214;2023-05-07T05:13:16;39.83;;;30.35;;
54937;SDS011;52756;52.826;6.214;2023-05-07T05:15:42;38.00;;;30.05;;
54937;SDS011;52756;52.826;6.214;2023-05-07T05:18:08;39.67;;;31.15;;
54937;SDS011;52756;52.826;6.214;2023-05-07T05:20:33;37.83;;;30.15;;
54937;SDS011;52756;52.826;6.214;2023-05-07T05:22:59;41.05;;;29.73;;
54937;SDS011;52756;52.826;6.214;2023-05-07T05:25:25;39.67;;;31.63;;
54937;SDS011;52756;52.826;6.214;2023-05-07T05:27:51;38.97;;;29.45;;
54937;SDS011;52756;52.826;6.214;2023-05-07T05:30:16;39.55;;;31.45;;
54937;SDS011;52756;52.826;6.214;2023-05-07T05:32:42;41.00;;;31.23;;
54937;SDS011;52756;52.826;6.214;2023-05-07T05:35:08;38.40;;;30.10;;
54937;SDS011;52756;52.826;6.214;2023-05-07T05:37:33;37.15;;;29.70;;
54937;SDS011;52756;52.826;6.214;2023-05-07T05:39:59;37.28;;;29.50;;
54937;SDS011;52756;52.826;6.214;2023-05-07T05:42:25;38.42;;;30.83;;
54937;SDS011;52756;52.826;6.214;2023-05-07T05:44:50;35.28;;;29.27;;
54937;SDS011;52756;52.826;6.214;2023-05-07T05:47:16;34.13;;;28.95;;
54937;SDS011;52756;52.826;6.214;2023-05-07T05:49:42;33.97;;;27.67;;
54937;SDS011;52756;52.826;6.214;2023-05-07T05:52:08;35.90;;;29.73;;
54937;SDS011;52756;52.826;6.214;2023-05-07T05:54:34;34.42;;;28.40;;
54937;SDS011;52756;52.826;6.214;2023-05-07T05:57:00;35.25;;;27.52;;
54937;SDS011;52756;52.826;6.214;2023-05-07T05:59:29;35.05;;;28.45;;
54937;SDS011;52756;52.826;6.214;2023-05-07T06:01:54;34.65;;;27.73;;
54937;SDS011;52756;52.826;6.214;2023-05-07T06:04:20;32.97;;;28.48;;
54937;SDS011;52756;52.826;6.214;2023-05-07T06:06:46;34.20;;;26.85;;
54937;SDS011;52756;52.826;6.214;2023-05-07T06:09:11;33.65;;;27.38;;
54937;SDS011;52756;52.826;6.214;2023-05-07T06:11:37;33.03;;;26.45;;
54937;SDS011;52756;52.826;6.214;2023-05-07T06:14:03;35.28;;;27.48;;
54937;SDS011;52756;52.826;6.214;2023-05-07T06:16:29;32.83;;;27.17;;
54937;SDS011;52756;52.826;6.214;2023-05-07T06:18:54;33.55;;;26.92;;
54937;SDS011;52756;52.826;6.214;2023-05-07T06:21:20;32.85;;;28.00;;
54937;SDS011;52756;52.826;6.214;2023-05-07T06:23:46;34.65;;;27.48;;
54937;SDS011;52756;52.826;6.214;2023-05-07T06:26:12;32.88;;;26.30;;
54937;SDS011;52756;52.826;6.214;2023-05-07T06:28:37;30.90;;;25.35;;
54937;SDS011;52756;52.826;6.214;2023-05-07T06:31:13;34.33;;;26.33;;
54937;SDS011;52756;52.826;6.214;2023-05-07T06:33:45;30.70;;;26.95;;
54937;SDS011;52756;52.826;6.214;2023-05-07T06:36:12;34.35;;;27.17;;
54937;SDS011;52756;52.826;6.214;2023-05-07T06:38:38;31.77;;;26.88;;
54937;SDS011;52756;52.826;6.214;2023-05-07T06:41:05;29.13;;;25.10;;
54937;SDS011;52756;52.826;6.214;2023-05-07T06:43:31;32.42;;;26.27;;
54937;SDS011;52756;52.826;6.214;2023-05-07T06:45:57;29.42;;;24.90;;
54937;SDS011;52756;52.826;6.214;2023-05-07T06:48:22;33.65;;;26.63;;
54937;SDS011;52756;52.826;6.214;2023-05-07T06:50:48;31.23;;;25.38;;
54937;SDS011;52756;52.826;6.214;2023-05-07T06:53:14;32.10;;;25.13;;
54937;SDS011;52756;52.826;6.214;2023-05-07T06:55:39;31.27;;;26.00;;
54937;SDS011;52756;52.826;6.214;2023-05-07T06:58:06;30.70;;;25.02;;
54937;SDS011;52756;52.826;6.214;2023-05-07T07:00:32;32.20;;;26.55;;
54937;SDS011;52756;52.826;6.214;2023-05-07T07:02:58;33.42;;;26.05;;
54937;SDS011;52756;52.826;6.214;2023-05-07T07:05:24;31.02;;;26.17;;
54937;SDS011;52756;52.826;6.214;2023-05-07T07:07:50;28.02;;;24.35;;
54937;SDS011;52756;52.826;6.214;2023-05-07T07:10:20;30.08;;;24.48;;
54937;SDS011;52756;52.826;6.214;2023-05-07T07:12:47;28.73;;;24.08;;
54937;SDS011;52756;52.826;6.214;2023-05-07T07:15:14;30.42;;;24.52;;
54937;SDS011;52756;52.826;6.214;2023-05-07T07:17:40;30.27;;;23.80;;
54937;SDS011;52756;52.826;6.214;2023-05-07T07:20:06;28.98;;;25.50;;
54937;SDS011;52756;52.826;6.214;2023-05-07T07:22:32;29.02;;;24.50;;
54937;SDS011;52756;52.826;6.214;2023-05-07T07:24:57;30.13;;;25.83;;
54937;SDS011;52756;52.826;6.214;2023-05-07T07:27:23;27.60;;;24.65;;
54937;SDS011;52756;52.826;6.214;2023-05-07T07:29:49;27.33;;;24.02;;
54937;SDS011;52756;52.826;6.214;2023-05-07T07:32:15;28.70;;;25.20;;
54937;SDS011;52756;52.826;6.214;2023-05-07T07:34:40;28.70;;;24.65;;
54937;SDS011;52756;52.826;6.214;2023-05-07T07:37:06;29.35;;;24.65;;
54937;SDS011;52756;52.826;6.214;2023-05-07T07:39:32;31.35;;;25.48;;
54937;SDS011;52756;52.826;6.214;2023-05-07T07:41:58;27.95;;;24.05;;
54937;SDS011;52756;52.826;6.214;2023-05-07T07:44:24;28.23;;;25.00;;
54937;SDS011;52756;52.826;6.214;2023-05-07T07:46:50;29.17;;;25.70;;
54937;SDS011;52756;52.826;6.214;2023-05-07T07:49:16;29.67;;;25.60;;
54937;SDS011;52756;52.826;6.214;2023-05-07T07:51:42;29.38;;;24.98;;
54937;SDS011;52756;52.826;6.214;2023-05-07T07:54:08;30.45;;;25.42;;
54937;SDS011;52756;52.826;6.214;2023-05-07T07:56:34;29.38;;;23.58;;
54937;SDS011;52756;52.826;6.214;2023-05-07T07:59:00;31.42;;;25.65;;
54937;SDS011;52756;52.826;6.214;2023-05-07T08:01:26;29.05;;;24.52;;
54937;SDS011;52756;52.826;6.214;2023-05-07T08:03:53;29.10;;;24.83;;
54937;SDS011;52756;52.826;6.214;2023-05-07T08:06:19;28.60;;;25.50;;
54937;SDS011;52756;52.826;6.214;2023-05-07T08:08:44;28.23;;;25.23;;
54937;SDS011;52756;52.826;6.214;2023-05-07T08:11:10;28.17;;;25.13;;
54937;SDS011;52756;52.826;6.214;2023-05-07T08:13:36;28.10;;;24.55;;
54937;SDS011;52756;52.826;6.214;2023-05-07T08:16:03;30.58;;;24.98;;
54937;SDS011;52756;52.826;6.214;2023-05-07T08:18:29;32.55;;;25.55;;
54937;SDS011;52756;52.826;6.214;2023-05-07T08:20:55;28.77;;;24.40;;
54937;SDS011;52756;52.826;6.214;2023-05-07T08:23:21;27.52;;;23.95;;
54937;SDS011;52756;52.826;6.214;2023-05-07T08:25:47;32.10;;;25.60;;
54937;SDS011;52756;52.826;6.214;2023-05-07T08:28:14;30.27;;;25.73;;
54937;SDS011;52756;52.826;6.214;2023-05-07T08:30:40;29.02;;;25.92;;
54937;SDS011;52756;52.826;6.214;2023-05-07T08:33:06;29.80;;;24.92;;
54937;SDS011;52756;52.826;6.214;2023-05-07T08:35:34;30.17;;;24.90;;
54937;SDS011;52756;52.826;6.214;2023-05-07T08:38:00;27.52;;;24.05;;
54937;SDS011;52756;52.826;6.214;2023-05-07T08:40:26;28.17;;;25.02;;
54937;SDS011;52756;52.826;6.214;2023-05-07T08:42:52;27.92;;;24.25;;
54937;SDS011;52756;52.826;6.214;2023-05-07T08:45:19;29.60;;;26.48;;
54937;SDS011;52756;52.826;6.214;2023-05-07T08:47:52;28.48;;;25.08;;
54937;SDS011;52756;52.826;6.214;2023-05-07T08:50:23;29.67;;;25.25;;
54937;SDS011;52756;52.826;6.214;2023-05-07T08:52:49;29.92;;;26.00;;
54937;SDS011;52756;52.826;6.214;2023-05-07T08:55:15;29.25;;;25.88;;
54937;SDS011;52756;52.826;6.214;2023-05-07T08:57:41;29.88;;;26.38;;
54937;SDS011;52756;52.826;6.214;2023-05-07T09:00:07;30.58;;;25.67;;
54937;SDS011;52756;52.826;6.214;2023-05-07T09:02:34;30.27;;;26.60;;
54937;SDS011;52756;52.826;6.214;2023-05-07T09:05:01;30.42;;;25.75;;
54937;SDS011;52756;52.826;6.214;2023-05-07T09:07:27;27.27;;;24.35;;
54937;SDS011;52756;52.826;6.214;2023-05-07T09:09:53;27.98;;;24.90;;
54937;SDS011;52756;52.826;6.214;2023-05-07T09:12:20;29.77;;;25.00;;
54937;SDS011;52756;52.826;6.214;2023-05-07T09:14:46;30.98;;;26.23;;
54937;SDS011;52756;52.826;6.214;2023-05-07T09:17:12;29.98;;;25.85;;
54937;SDS011;52756;52.826;6.214;2023-05-07T09:19:38;27.48;;;24.48;;
54937;SDS011;52756;52.826;6.214;2023-05-07T09:22:05;30.63;;;24.58;;
54937;SDS011;52756;52.826;6.214;2023-05-07T09:24:32;27.42;;;24.50;;
54937;SDS011;52756;52.826;6.214;2023-05-07T09:27:03;28.58;;;25.50;;
54937;SDS011;52756;52.826;6.214;2023-05-07T09:29:29;28.13;;;25.13;;
54937;SDS011;52756;52.826;6.214;2023-05-07T09:32:00;29.27;;;25.52;;
54937;SDS011;52756;52.826;6.214;2023-05-07T09:34:33;28.75;;;25.08;;
54937;SDS011;52756;52.826;6.214;2023-05-07T09:37:03;28.60;;;25.10;;
54937;SDS011;52756;52.826;6.214;2023-05-07T09:39:39;30.10;;;26.02;;
54937;SDS011;52756;52.826;6.214;2023-05-07T09:42:05;27.67;;;24.83;;
54937;SDS011;52756;52.826;6.214;2023-05-07T09:44:32;28.38;;;24.38;;
54937;SDS011;52756;52.826;6.214;2023-05-07T09:46:59;29.88;;;25.70;;
54937;SDS011;52756;52.826;6.214;2023-05-07T09:49:26;28.67;;;25.65;;
54937;SDS011;52756;52.826;6.214;2023-05-07T09:51:57;30.30;;;27.10;;
54937;SDS011;52756;52.826;6.214;2023-05-07T09:54:25;30.35;;;26.13;;
54937;SDS011;52756;52.826;6.214;2023-05-07T09:56:53;28.58;;;24.75;;
54937;SDS011;52756;52.826;6.214;2023-05-07T09:59:20;29.52;;;25.73;;
54937;SDS011;52756;52.826;6.214;2023-05-07T10:01:47;28.23;;;25.23;;
54937;SDS011;52756;52.826;6.214;2023-05-07T10:04:14;30.15;;;25.85;;
54937;SDS011;52756;52.826;6.214;2023-05-07T10:06:41;27.85;;;24.58;;
54937;SDS011;52756;52.826;6.214;2023-05-07T10:09:09;30.50;;;27.30;;
54937;SDS011;52756;52.826;6.214;2023-05-07T10:11:36;27.63;;;24.05;;
54937;SDS011;52756;52.826;6.214;2023-05-07T10:14:02;28.02;;;25.08;;
54937;SDS011;52756;52.826;6.214;2023-05-07T10:16:34;28.15;;;25.05;;
54937;SDS011;52756;52.826;6.214;2023-05-07T10:19:05;29.35;;;25.42;;
54937;SDS011;52756;52.826;6.214;2023-05-07T10:24:25;29.63;;;25.00;;
54937;SDS011;52756;52.826;6.214;2023-05-07T10:26:54;26.92;;;24.02;;
54937;SDS011;52756;52.826;6.214;2023-05-07T10:29:45;27.48;;;24.58;;
54937;SDS011;52756;52.826;6.214;2023-05-07T10:35:25;29.13;;;25.23;;
54937;SDS011;52756;52.826;6.214;2023-05-07T10:37:54;31.65;;;26.88;;
54937;SDS011;52756;52.826;6.214;2023-05-07T10:40:20;27.90;;;24.23;;
54937;SDS011;52756;52.826;6.214;2023-05-07T10:42:56;29.30;;;25.38;;
54937;SDS011;52756;52.826;6.214;2023-05-07T10:45:26;28.48;;;25.42;;
54937;SDS011;52756;52.826;6.214;2023-05-07T10:48:05;27.35;;;24.35;;
54937;SDS011;52756;52.826;6.214;2023-05-07T10:50:31;27.08;;;24.17;;
54937;SDS011;52756;52.826;6.214;2023-05-07T10:53:20;28.17;;;25.25;;
54937;SDS011;52756;52.826;6.214;2023-05-07T10:55:50;27.10;;;24.33;;
54937;SDS011;52756;52.826;6.214;2023-05-07T10:58:33;28.45;;;25.27;;
54937;SDS011;52756;52.826;6.214;2023-05-07T11:01:02;27.38;;;24.58;;
54937;SDS011;52756;52.826;6.214;2023-05-07T11:03:28;27.50;;;24.38;;
54937;SDS011;52756;52.826;6.214;2023-05-07T11:06:13;27.58;;;24.67;;
54937;SDS011;52756;52.826;6.214;2023-05-07T11:11:19;27.38;;;24.58;;
54937;SDS011;52756;52.826;6.214;2023-05-07T11:13:46;25.65;;;23.00;;
54937;SDS011;52756;52.826;6.214;2023-05-07T11:16:22;26.75;;;24.05;;
54937;SDS011;52756;52.826;6.214;2023-05-07T11:18:56;25.77;;;23.10;;
54937;SDS011;52756;52.826;6.214;2023-05-07T11:21:31;24.33;;;21.77;;
54937;SDS011;52756;52.826;6.214;2023-05-07T11:24:01;23.05;;;20.63;;
54937;SDS011;52756;52.826;6.214;2023-05-07T11:26:28;24.80;;;22.17;;
54937;SDS011;52756;52.826;6.214;2023-05-07T11:28:56;24.98;;;21.55;;
54937;SDS011;52756;52.826;6.214;2023-05-07T11:31:23;24.77;;;22.17;;
54937;SDS011;52756;52.826;6.214;2023-05-07T11:33:51;25.23;;;22.52;;
54937;SDS011;52756;52.826;6.214;2023-05-07T11:36:18;24.30;;;21.58;;
54937;SDS011;52756;52.826;6.214;2023-05-07T11:38:45;22.65;;;20.35;;
54937;SDS011;52756;52.826;6.214;2023-05-07T11:41:11;21.48;;;19.23;;
54937;SDS011;52756;52.826;6.214;2023-05-07T11:43:37;21.88;;;19.67;;
54937;SDS011;52756;52.826;6.214;2023-05-07T11:46:08;19.88;;;17.77;;
54937;SDS011;52756;52.826;6.214;2023-05-07T11:48:35;19.25;;;17.25;;
54937;SDS011;52756;52.826;6.214;2023-05-07T11:51:02;19.75;;;17.80;;
54937;SDS011;52756;52.826;6.214;2023-05-07T11:53:39;18.90;;;16.90;;
54937;SDS011;52756;52.826;6.214;2023-05-07T11:56:06;19.50;;;17.63;;
54937;SDS011;52756;52.826;6.214;2023-05-07T11:58:33;20.40;;;18.30;;
54937;SDS011;52756;52.826;6.214;2023-05-07T12:00:59;22.98;;;19.75;;
54937;SDS011;52756;52.826;6.214;2023-05-07T12:03:25;21.73;;;18.02;;
54937;SDS011;52756;52.826;6.214;2023-05-07T12:05:51;19.50;;;17.50;;
54937;SDS011;52756;52.826;6.214;2023-05-07T12:08:17;20.90;;;17.48;;
54937;SDS011;52756;52.826;6.214;2023-05-07T12:10:44;19.52;;;17.42;;
54937;SDS011;52756;52.826;6.214;2023-05-07T12:15:46;20.30;;;18.33;;
54937;SDS011;52756;52.826;6.214;2023-05-07T12:18:12;21.13;;;19.02;;
54937;SDS011;52756;52.826;6.214;2023-05-07T12:20:38;20.08;;;18.08;;
54937;SDS011;52756;52.826;6.214;2023-05-07T12:23:05;21.05;;;18.90;;
54937;SDS011;52756;52.826;6.214;2023-05-07T12:25:31;19.48;;;17.48;;
54937;SDS011;52756;52.826;6.214;2023-05-07T12:28:00;19.58;;;17.58;;
54937;SDS011;52756;52.826;6.214;2023-05-07T12:30:26;19.20;;;17.20;;
54937;SDS011;52756;52.826;6.214;2023-05-07T12:32:52;18.33;;;16.45;;
54937;SDS011;52756;52.826;6.214;2023-05-07T12:35:29;18.67;;;16.88;;
54937;SDS011;52756;52.826;6.214;2023-05-07T12:37:56;16.92;;;15.23;;
54937;SDS011;52756;52.826;6.214;2023-05-07T12:40:24;16.02;;;14.52;;
54937;SDS011;52756;52.826;6.214;2023-05-07T12:43:00;17.38;;;15.65;;
54937;SDS011;52756;52.826;6.214;2023-05-07T12:45:26;19.63;;;17.63;;
54937;SDS011;52756;52.826;6.214;2023-05-07T12:47:52;16.73;;;15.13;;
54937;SDS011;52756;52.826;6.214;2023-05-07T12:50:17;17.98;;;16.23;;
54937;SDS011;52756;52.826;6.214;2023-05-07T12:52:44;17.55;;;15.73;;
54937;SDS011;52756;52.826;6.214;2023-05-07T12:55:12;18.08;;;16.13;;
54937;SDS011;52756;52.826;6.214;2023-05-07T12:57:49;17.35;;;15.55;;
54937;SDS011;52756;52.826;6.214;2023-05-07T13:00:18;17.65;;;15.90;;
54937;SDS011;52756;52.826;6.214;2023-05-07T13:03:03;16.58;;;14.88;;
54937;SDS011;52756;52.826;6.214;2023-05-07T13:05:30;17.65;;;15.88;;
54937;SDS011;52756;52.826;6.214;2023-05-07T13:07:57;17.85;;;15.93;;
54937;SDS011;52756;52.826;6.214;2023-05-07T13:10:23;17.17;;;15.45;;
54937;SDS011;52756;52.826;6.214;2023-05-07T13:12:50;15.75;;;14.18;;
54937;SDS011;52756;52.826;6.214;2023-05-07T13:15:16;17.13;;;15.43;;
54937;SDS011;52756;52.826;6.214;2023-05-07T13:17:42;16.90;;;14.82;;
54937;SDS011;52756;52.826;6.214;2023-05-07T13:20:09;16.50;;;14.57;;
54937;SDS011;52756;52.826;6.214;2023-05-07T13:22:35;16.85;;;15.25;;
54937;SDS011;52756;52.826;6.214;2023-05-07T13:25:01;18.77;;;16.88;;
54937;SDS011;52756;52.826;6.214;2023-05-07T13:27:27;17.73;;;15.98;;
54937;SDS011;52756;52.826;6.214;2023-05-07T13:29:52;16.58;;;14.80;;
54937;SDS011;52756;52.826;6.214;2023-05-07T13:32:18;16.55;;;14.80;;
54937;SDS011;52756;52.826;6.214;2023-05-07T13:34:44;17.08;;;15.35;;
54937;SDS011;52756;52.826;6.214;2023-05-07T13:37:09;17.58;;;15.68;;
54937;SDS011;52756;52.826;6.214;2023-05-07T13:39:36;18.67;;;16.60;;
54937;SDS011;52756;52.826;6.214;2023-05-07T13:42:01;17.63;;;15.82;;
54937;SDS011;52756;52.826;6.214;2023-05-07T13:44:27;17.88;;;16.17;;
54937;SDS011;52756;52.826;6.214;2023-05-07T13:46:53;18.67;;;16.88;;
54937;SDS011;52756;52.826;6.214;2023-05-07T13:49:19;18.52;;;16.63;;
54937;SDS011;52756;52.826;6.214;2023-05-07T13:51:45;18.63;;;16.85;;
54937;SDS011;52756;52.826;6.214;2023-05-07T13:54:11;18.73;;;16.92;;
54937;SDS011;52756;52.826;6.214;2023-05-07T13:56:37;19.25;;;17.17;;
54937;SDS011;52756;52.826;6.214;2023-05-07T13:59:03;19.42;;;17.52;;
54937;SDS011;52756;52.826;6.214;2023-05-07T14:01:28;19.15;;;17.15;;
54937;SDS011;52756;52.826;6.214;2023-05-07T14:03:55;19.15;;;17.13;;
54937;SDS011;52756;52.826;6.214;2023-05-07T14:06:22;19.35;;;17.30;;
54937;SDS011;52756;52.826;6.214;2023-05-07T14:08:48;20.45;;;18.38;;
54937;SDS011;52756;52.826;6.214;2023-05-07T14:11:14;18.80;;;16.90;;
54937;SDS011;52756;52.826;6.214;2023-05-07T14:13:39;18.77;;;16.85;;
54937;SDS011;52756;52.826;6.214;2023-05-07T14:16:05;19.25;;;17.08;;
54937;SDS011;52756;52.826;6.214;2023-05-07T14:18:31;17.75;;;15.95;;
54937;SDS011;52756;52.826;6.214;2023-05-07T14:20:58;16.77;;;15.05;;
54937;SDS011;52756;52.826;6.214;2023-05-07T14:23:24;16.38;;;14.77;;
54937;SDS011;52756;52.826;6.214;2023-05-07T14:25:51;18.90;;;17.15;;
54937;SDS011;52756;52.826;6.214;2023-05-07T14:28:18;18.65;;;16.75;;
54937;SDS011;52756;52.826;6.214;2023-05-07T14:30:44;18.60;;;16.70;;